Terminal Aerodrome Forecast
Issued by NWS

Home | Current Version | Previous Version | Text Only | Print | Product List | Glossary On
Versions: 1 2 3 4 5 6 7 8 9 10 11 12 13 14 15 16 17 18 19 20 21 22 23 24
000
FTUS45 KRIW 312325
TAFLND
TAF
KLND 312325Z 0100/0124 18020G30KT P6SM VCSH SCT110 BKN200
     FM010130 25010KT P6SM SCT120
     FM011000 VRB05KT P6SM SCT200
     FM011800 24020G28KT P6SM FEW120=

USA.gov is the U.S. government's official web portal to all federal, state and local government web resources and services.